Aérodrome :
LOGIN :

S'inscrire | Disclaimer

   EN    FR    IT 

 










Légende :    VFR   VFR Marginal   IFR   IFR Intensif   IFR Très Intensif
Visi : 
Plafond : 
>= 8 km
>= 3000ft
5 à 8 km
1000 à 3000 ft
1500m à 5 km
500 à 1000 ft
800 à 1500m
200 à 500 ft
< 800m
< 200 ft
Symboles :   Orages  Brouillard  Fortes neiges  Fortes précipitations  Vent > 20 kt
SIGMETs :   Divers  Orages  Givrage  Turbulence  Onde Orograph.  Cendres Volcan.







- Altitude de l'aérodrome : 374 ft
- Code IATA : LIS


LPPT - Lisboa Portela

DERNIER METAR :
  • 121130Z 21007KT 9999 FEW014 BKN040 16/11 Q1023

METARs EXPIRÉS :
  • 121100Z 21008KT 9999 FEW025 BKN046 15/11 Q1024
  • 121030Z 19007KT 140V210 9999 FEW030 BKN044 14/12 Q1024
  • 121000Z 23005KT 9999 FEW030 BKN042 14/12 Q1024
  • 120930Z 21002KT 9999 FEW035 BKN042 13/12 Q1024
  • 120900Z 00000KT 9999 BKN040 13/11 Q1024

TAF TAF LPPT
Valide du 12 à 12h jusqu'au 13 à 18h UTC


121100Z 1212/1318 19007KT 9999 SCT018 BKN040
TEMPO 1212/1220 BKN015
BECMG 1220/1222 19012KT 5000 -RA BR SCT004 BKN012
TEMPO 1222/1302 20015G27KT 2000 +RADZ BR SCT002 BKN004
BECMG 1302/1304 28020G32KT 9999 NSW SCT025
BECMG 1305/1307 31012KT
PROB30
TEMPO 1307/1312 31015G28KT
Pas de NOTAMs connus pour ce terrain.



MET'MAP, la Météo Aéronautique d'un coup d'oeil ! - Copyright ORBIFLY Décembre 2007 - Disclaimer

ORBIFLY MET'MAP TEAM :

Programmation & Développement : Alexandra Zaïnal
Conception & Développement : Baudouin d'Aumeries
Co-Programmation & Développement : Marc-Olivier Méhu
Soutien technique & logistique : Manuel Goepfert

Contact : metmap@orbifly.com




SOURCES & CREDITS :

   NOAA